Time;durP1;ratioP1;P1;durP2;ratioP2;P2;SDS_P1;SDS_P2;PMS_P1;PMS_P2;Temp;Humidity;BMP_temperature;BMP_pressure;BME280_temperature;BME280_humidity;BME280_pressure;Samples;Min_cycle;Max_cycle;Signal;HPM_P1;HPM_P2
2022/03/14 00:00:04;;;;;;;;;;;9.10;37.10;;;;;;2292343;58;20084;-76
2022/03/14 00:02:31;;;;;;;;;;;9.10;37.80;;;;;;2323315;55;20096;-76
2022/03/14 00:04:57;;;;;;;;;;;9.10;37.90;;;;;;2292866;58;20135;-76
2022/03/14 00:07:23;;;;;;;;;;;9.10;36.90;;;;;;2292459;55;20072;-76
2022/03/14 00:09:50;;;;;;;;;;;9.10;36.40;;;;;;2292283;58;20404;-75
2022/03/14 00:12:18;;;;;;;;;;;9.00;36.90;;;;;;2292651;58;20331;-76
2022/03/14 00:14:44;;;;;;;;;;;9.10;38.00;;;;;;2290378;58;20084;-76
2022/03/14 00:17:11;;;;;;;;;;;9.00;37.80;;;;;;2292420;58;20167;-76
2022/03/14 00:19:39;;;;;;;;;;;9.10;38.20;;;;;;2311544;55;20096;-76
2022/03/14 00:22:06;;;;;;;;;;;9.00;40.10;;;;;;2292869;58;20112;-76
2022/03/14 00:24:32;;;;;;;;;;;9.00;38.60;;;;;;2367131;55;20362;-76
2022/03/14 00:26:59;;;;;;;;;;;9.00;39.10;;;;;;2297158;55;20516;-76
2022/03/14 00:29:26;;;;;;;;;;;9.10;38.90;;;;;;2290622;58;20368;-76
2022/03/14 00:31:53;;;;;;;;;;;9.10;38.60;;;;;;2351593;55;20121;-76
2022/03/14 00:34:19;;;;;;;;;;;9.10;38.50;;;;;;2314289;55;20109;-76
2022/03/14 00:36:47;;;;;;;;;;;9.00;37.60;;;;;;2292571;58;20125;-76
2022/03/14 00:39:13;;;;;;;;;;;9.00;38.60;;;;;;2292594;59;20088;-76
2022/03/14 00:41:40;;;;;;;;;;;9.00;37.90;;;;;;2292625;58;20124;-76
2022/03/14 00:44:06;;;;;;;;;;;9.00;38.50;;;;;;2292557;58;20151;-76
2022/03/14 00:46:37;;;;;;;;;;;8.90;38.10;;;;;;2290937;58;20254;-76
2022/03/14 00:49:03;;;;;;;;;;;9.00;38.00;;;;;;2291577;58;20096;-76
2022/03/14 00:51:30;;;;;;;;;;;8.90;38.20;;;;;;2291863;58;20084;-76
2022/03/14 00:53:57;;;;;;;;;;;8.90;38.20;;;;;;2292178;59;20132;-76
2022/03/14 00:56:24;;;;;;;;;;;8.90;38.20;;;;;;2292598;58;20148;-76
2022/03/14 00:58:51;;;;;;;;;;;8.90;38.50;;;;;;2292233;58;20084;-76
2022/03/14 01:01:17;;;;;;;;;;;8.80;38.40;;;;;;2292086;59;20056;-76
2022/03/14 01:03:44;;;;;;;;;;;8.80;38.10;;;;;;2292412;59;20096;-76
2022/03/14 01:06:10;;;;;;;;;;;8.80;38.80;;;;;;2292215;58;20419;-76
2022/03/14 01:08:36;;;;;;;;;;;8.80;38.50;;;;;;2292485;59;20088;-76
2022/03/14 01:11:03;;;;;;;;;;;8.80;38.30;;;;;;2294402;55;20140;-75
2022/03/14 01:13:30;;;;;;;;;;;8.70;37.70;;;;;;2292603;58;20080;-75
2022/03/14 01:15:57;;;;;;;;;;;8.70;37.30;;;;;;2292312;59;20088;-76
2022/03/14 01:18:25;;;;;;;;;;;8.70;38.10;;;;;;2292412;59;20064;-76
2022/03/14 01:20:52;;;;;;;;;;;8.60;37.70;;;;;;2292265;59;20179;-76
2022/03/14 01:23:18;;;;;;;;;;;8.60;39.00;;;;;;2291976;59;20133;-76
2022/03/14 01:25:45;;;;;;;;;;;8.60;39.00;;;;;;2291878;58;20120;-76
2022/03/14 01:28:12;;;;;;;;;;;8.60;38.90;;;;;;2292504;58;20128;-76
2022/03/14 01:30:40;;;;;;;;;;;8.60;39.40;;;;;;2297563;55;20068;-76
2022/03/14 01:33:06;;;;;;;;;;;8.70;39.40;;;;;;2292539;59;20124;-75
2022/03/14 01:35:33;;;;;;;;;;;8.60;39.80;;;;;;2315916;55;20128;-76
2022/03/14 01:37:59;;;;;;;;;;;8.60;39.60;;;;;;2291528;59;20129;-75
2022/03/14 01:40:26;;;;;;;;;;;8.60;39.90;;;;;;2291766;58;20367;-76
2022/03/14 01:42:52;;;;;;;;;;;8.60;40.10;;;;;;2292345;59;20089;-76
2022/03/14 01:45:21;;;;;;;;;;;8.60;41.40;;;;;;2292102;59;20088;-76
2022/03/14 01:47:48;;;;;;;;;;;8.50;40.90;;;;;;2292578;59;20081;-76
2022/03/14 01:50:15;;;;;;;;;;;8.50;40.90;;;;;;2292275;59;20084;-76
2022/03/14 01:52:42;;;;;;;;;;;8.50;40.20;;;;;;2292104;59;20502;-75
2022/03/14 01:55:09;;;;;;;;;;;8.40;39.90;;;;;;2291637;58;20076;-76
2022/03/14 01:57:36;;;;;;;;;;;8.40;40.10;;;;;;2292776;58;20068;-76
2022/03/14 02:00:04;;;;;;;;;;;8.40;40.30;;;;;;2292500;58;20081;-75
2022/03/14 02:02:30;;;;;;;;;;;8.40;40.30;;;;;;2302186;55;20215;-76
2022/03/14 02:04:57;;;;;;;;;;;8.40;41.00;;;;;;2297664;55;20140;-76
2022/03/14 02:07:23;;;;;;;;;;;8.40;40.30;;;;;;2292298;58;20358;-75
2022/03/14 02:09:50;;;;;;;;;;;8.30;40.10;;;;;;2335412;55;20328;-75
2022/03/14 02:12:16;;;;;;;;;;;8.30;39.90;;;;;;2292334;58;20132;-76
2022/03/14 02:14:43;;;;;;;;;;;8.30;40.10;;;;;;2295166;55;20092;-75
2022/03/14 02:17:10;;;;;;;;;;;8.30;40.30;;;;;;2292585;58;20124;-76
2022/03/14 02:19:36;;;;;;;;;;;8.30;40.10;;;;;;2290476;58;20112;-76
2022/03/14 02:22:04;;;;;;;;;;;8.30;40.10;;;;;;2285350;55;20077;-77
2022/03/14 02:24:30;;;;;;;;;;;8.20;40.30;;;;;;2498698;55;20128;-77
2022/03/14 02:26:57;;;;;;;;;;;8.20;40.00;;;;;;2268839;59;20109;-77
2022/03/14 02:29:24;;;;;;;;;;;8.20;40.60;;;;;;2267795;59;20089;-77
2022/03/14 02:31:51;;;;;;;;;;;8.10;40.30;;;;;;2497672;55;20071;-77
2022/03/14 02:34:17;;;;;;;;;;;8.10;40.80;;;;;;2267831;59;20312;-77
2022/03/14 02:36:44;;;;;;;;;;;8.10;40.50;;;;;;2267213;59;20072;-77
2022/03/14 02:39:10;;;;;;;;;;;8.10;41.70;;;;;;2496255;55;20140;-77
2022/03/14 02:41:37;;;;;;;;;;;8.10;41.70;;;;;;2267332;59;20122;-78
2022/03/14 02:44:06;;;;;;;;;;;8.10;40.70;;;;;;2496975;55;20101;-77
2022/03/14 02:46:34;;;;;;;;;;;8.10;41.40;;;;;;2266714;59;20077;-78
2022/03/14 02:49:00;;;;;;;;;;;8.10;42.20;;;;;;2267339;59;20069;-77
2022/03/14 02:51:28;;;;;;;;;;;8.10;42.70;;;;;;2267088;59;20204;-77
2022/03/14 02:53:56;;;;;;;;;;;8.10;43.00;;;;;;2267066;59;20350;-77
2022/03/14 02:56:23;;;;;;;;;;;8.10;42.80;;;;;;2267239;59;20133;-78
2022/03/14 02:58:51;;;;;;;;;;;8.10;43.30;;;;;;2266841;59;20137;-77
2022/03/14 03:01:18;;;;;;;;;;;8.10;42.80;;;;;;2266644;59;20133;-77
2022/03/14 03:03:44;;;;;;;;;;;8.10;43.00;;;;;;2267110;59;20073;-77
2022/03/14 03:06:12;;;;;;;;;;;8.10;42.30;;;;;;2267182;59;20086;-77
2022/03/14 03:08:39;;;;;;;;;;;8.00;42.50;;;;;;2497030;55;20069;-78
2022/03/14 03:11:08;;;;;;;;;;;8.00;42.60;;;;;;2496585;55;20069;-77
2022/03/14 03:13:35;;;;;;;;;;;7.90;42.70;;;;;;2496820;55;20130;-77
2022/03/14 03:16:01;;;;;;;;;;;8.00;43.50;;;;;;2496992;55;20065;-77
2022/03/14 03:18:28;;;;;;;;;;;7.90;43.20;;;;;;2496404;55;20061;-77
2022/03/14 03:20:54;;;;;;;;;;;7.90;42.50;;;;;;2496521;55;20092;-77
2022/03/14 03:23:21;;;;;;;;;;;7.90;42.50;;;;;;2266797;59;20290;-78
2022/03/14 03:25:47;;;;;;;;;;;7.90;43.50;;;;;;2265507;59;20140;-77
2022/03/14 03:28:14;;;;;;;;;;;7.80;42.90;;;;;;2266060;59;20085;-77
2022/03/14 03:30:41;;;;;;;;;;;7.90;42.70;;;;;;2267271;59;20073;-77
2022/03/14 03:33:07;;;;;;;;;;;7.80;43.70;;;;;;2267855;59;20090;-77
2022/03/14 03:35:34;;;;;;;;;;;7.90;43.10;;;;;;2497218;55;20086;-77
2022/03/14 03:38:01;;;;;;;;;;;7.80;42.30;;;;;;2267686;59;20081;-77
2022/03/14 03:40:27;;;;;;;;;;;7.80;42.30;;;;;;2496787;55;20166;-77
2022/03/14 03:45:29;;;;;;;;;;;7.70;42.30;;;;;;2358707;57;20080;-75
2022/03/14 03:47:56;;;;;;;;;;;7.70;42.30;;;;;;2632396;52;20300;-77
2022/03/14 03:50:22;;;;;;;;;;;7.70;42.40;;;;;;2632090;52;20318;-78
2022/03/14 03:52:49;;;;;;;;;;;7.70;42.10;;;;;;2600035;52;20063;-78
2022/03/14 03:55:15;;;;;;;;;;;7.60;40.90;;;;;;2351009;57;20252;-78
2022/03/14 03:57:42;;;;;;;;;;;7.60;41.90;;;;;;2598628;53;20138;-77
2022/03/14 04:00:12;;;;;;;;;;;7.60;43.70;;;;;;2350035;57;20145;-76
2022/03/14 04:02:39;;;;;;;;;;;7.60;42.80;;;;;;2348885;57;20078;-77
2022/03/14 04:05:06;;;;;;;;;;;7.50;42.40;;;;;;2350620;57;20067;-77
2022/03/14 04:07:34;;;;;;;;;;;7.50;42.00;;;;;;2598512;53;20127;-77
2022/03/14 04:10:01;;;;;;;;;;;7.50;42.30;;;;;;2350500;57;20098;-76
2022/03/14 04:12:27;;;;;;;;;;;7.50;42.10;;;;;;2350703;57;20305;-77
2022/03/14 04:14:56;;;;;;;;;;;7.50;42.00;;;;;;2598797;53;20281;-77
2022/03/14 04:17:24;;;;;;;;;;;7.40;41.60;;;;;;2350127;57;20153;-77
2022/03/14 04:19:52;;;;;;;;;;;7.40;41.00;;;;;;2350467;57;20125;-76
2022/03/14 04:22:19;;;;;;;;;;;7.40;41.80;;;;;;2350805;57;20189;-76
2022/03/14 04:24:46;;;;;;;;;;;7.30;41.90;;;;;;2350549;57;20115;-77
2022/03/14 04:27:12;;;;;;;;;;;7.30;41.90;;;;;;2350832;57;20054;-77
2022/03/14 04:29:39;;;;;;;;;;;7.30;41.90;;;;;;2350774;57;20125;-76
2022/03/14 04:32:06;;;;;;;;;;;7.40;43.30;;;;;;2598626;52;20297;-76
2022/03/14 04:34:32;;;;;;;;;;;7.30;43.30;;;;;;2350308;57;20135;-76
2022/03/14 04:36:59;;;;;;;;;;;7.30;42.80;;;;;;2350465;57;20107;-76
2022/03/14 04:39:25;;;;;;;;;;;7.30;43.00;;;;;;2598513;53;20391;-77
2022/03/14 04:41:53;;;;;;;;;;;7.30;43.10;;;;;;2350554;57;20141;-76
2022/03/14 04:44:21;;;;;;;;;;;7.30;42.60;;;;;;2350595;57;20258;-77
2022/03/14 04:46:48;;;;;;;;;;;7.30;43.50;;;;;;2351282;57;20074;-77
2022/03/14 04:49:14;;;;;;;;;;;7.30;42.60;;;;;;2349845;57;20081;-77
2022/03/14 04:51:41;;;;;;;;;;;7.20;42.00;;;;;;2598478;52;20150;-76
2022/03/14 04:54:07;;;;;;;;;;;7.20;42.40;;;;;;2598965;53;20070;-77
2022/03/14 04:56:34;;;;;;;;;;;7.10;42.30;;;;;;2350362;57;20082;-77
2022/03/14 04:59:00;;;;;;;;;;;7.10;42.40;;;;;;2347931;57;20150;-75
2022/03/14 05:01:27;;;;;;;;;;;7.10;42.20;;;;;;2349659;57;20130;-75
2022/03/14 05:03:53;;;;;;;;;;;7.00;41.60;;;;;;2349763;57;20169;-74
2022/03/14 05:06:20;;;;;;;;;;;7.00;41.90;;;;;;2349581;57;20357;-75
2022/03/14 05:08:47;;;;;;;;;;;7.00;42.60;;;;;;2349403;57;20341;-74
2022/03/14 05:11:14;;;;;;;;;;;7.00;42.70;;;;;;2349730;57;20086;-74
2022/03/14 05:13:41;;;;;;;;;;;7.00;42.10;;;;;;2348447;57;20150;-74
2022/03/14 05:16:07;;;;;;;;;;;7.00;43.00;;;;;;2347193;57;20110;-74
2022/03/14 05:18:34;;;;;;;;;;;7.00;42.80;;;;;;2349369;57;20146;-74
2022/03/14 05:21:01;;;;;;;;;;;7.00;42.30;;;;;;2349116;57;20083;-74
2022/03/14 05:23:28;;;;;;;;;;;7.00;42.60;;;;;;2349232;57;20113;-74
2022/03/14 05:25:55;;;;;;;;;;;7.00;42.70;;;;;;2349264;57;20122;-74
2022/03/14 05:28:21;;;;;;;;;;;7.00;42.60;;;;;;2349298;57;20078;-74
2022/03/14 05:30:48;;;;;;;;;;;6.90;42.70;;;;;;2348961;57;20078;-74
2022/03/14 05:33:14;;;;;;;;;;;6.90;42.80;;;;;;2596457;52;20047;-74
2022/03/14 05:35:41;;;;;;;;;;;6.90;42.30;;;;;;2596278;53;20499;-75
2022/03/14 05:38:08;;;;;;;;;;;6.90;42.20;;;;;;2349702;57;20380;-74
2022/03/14 05:40:34;;;;;;;;;;;6.90;42.30;;;;;;2349077;57;20082;-74
2022/03/14 05:43:06;;;;;;;;;;;6.90;42.20;;;;;;2349671;57;20067;-74
2022/03/14 05:45:33;;;;;;;;;;;6.80;42.40;;;;;;2349669;57;20118;-74
2022/03/14 05:47:59;;;;;;;;;;;6.80;42.40;;;;;;2349680;57;20055;-74
2022/03/14 05:50:26;;;;;;;;;;;6.80;41.90;;;;;;2595999;53;20063;-74
2022/03/14 05:52:52;;;;;;;;;;;6.70;42.00;;;;;;2349386;57;20075;-74
2022/03/14 05:55:19;;;;;;;;;;;6.70;42.70;;;;;;2348836;57;20091;-74
2022/03/14 05:57:45;;;;;;;;;;;6.70;42.90;;;;;;2349491;57;20062;-75
2022/03/14 06:00:13;;;;;;;;;;;6.70;43.00;;;;;;2348694;57;20118;-74
2022/03/14 06:02:44;;;;;;;;;;;6.80;43.70;;;;;;2348917;57;20130;-75
2022/03/14 06:05:11;;;;;;;;;;;6.80;43.70;;;;;;2349335;57;20074;-74
2022/03/14 06:07:37;;;;;;;;;;;6.80;43.70;;;;;;2348987;57;20443;-74
2022/03/14 06:10:05;;;;;;;;;;;6.80;43.60;;;;;;2349188;57;20091;-75
2022/03/14 06:12:31;;;;;;;;;;;6.70;42.80;;;;;;2349337;57;20086;-75
2022/03/14 06:14:58;;;;;;;;;;;6.70;42.60;;;;;;2349586;57;20126;-75
2022/03/14 06:17:25;;;;;;;;;;;6.60;42.60;;;;;;2350336;57;20063;-75
2022/03/14 06:19:52;;;;;;;;;;;6.60;42.80;;;;;;2349883;57;20089;-75
2022/03/14 06:22:19;;;;;;;;;;;6.60;42.60;;;;;;2349546;57;20070;-75
2022/03/14 06:24:47;;;;;;;;;;;6.60;42.80;;;;;;2349919;57;20115;-75
2022/03/14 06:27:14;;;;;;;;;;;6.60;42.60;;;;;;2350226;57;20146;-75
2022/03/14 06:29:41;;;;;;;;;;;6.60;43.20;;;;;;2348407;57;20074;-75
2022/03/14 06:32:08;;;;;;;;;;;6.60;42.40;;;;;;2349905;57;20079;-74
2022/03/14 06:34:34;;;;;;;;;;;6.60;43.50;;;;;;2349741;57;20079;-75
2022/03/14 06:37:01;;;;;;;;;;;6.60;43.00;;;;;;2350155;57;20062;-75
2022/03/14 06:39:28;;;;;;;;;;;6.60;42.00;;;;;;2349256;57;20082;-75
2022/03/14 06:41:55;;;;;;;;;;;6.50;42.40;;;;;;2349960;57;20079;-74
2022/03/14 06:44:26;;;;;;;;;;;6.60;44.00;;;;;;2349989;57;20448;-75
2022/03/14 06:46:53;;;;;;;;;;;6.60;44.10;;;;;;2350146;57;20070;-74
2022/03/14 06:49:19;;;;;;;;;;;6.70;44.60;;;;;;2348084;57;20134;-75
2022/03/14 06:51:46;;;;;;;;;;;6.70;43.50;;;;;;2349996;57;20067;-75
2022/03/14 06:54:14;;;;;;;;;;;6.70;43.30;;;;;;2349645;57;20102;-76
2022/03/14 06:56:42;;;;;;;;;;;6.70;42.90;;;;;;2349632;57;20131;-76
2022/03/14 06:59:09;;;;;;;;;;;6.70;43.40;;;;;;2596990;53;20114;-76
2022/03/14 07:01:35;;;;;;;;;;;6.70;43.30;;;;;;2349992;57;20066;-76
2022/03/14 07:04:02;;;;;;;;;;;6.80;43.20;;;;;;2597484;53;20102;-75
2022/03/14 07:06:29;;;;;;;;;;;6.80;43.20;;;;;;2349791;57;20082;-74
2022/03/14 07:08:55;;;;;;;;;;;6.80;43.50;;;;;;2349452;57;20373;-76
2022/03/14 07:11:22;;;;;;;;;;;6.80;43.70;;;;;;2597089;53;20046;-76
2022/03/14 07:13:49;;;;;;;;;;;6.80;45.20;;;;;;2349567;57;20119;-76
2022/03/14 07:16:15;;;;;;;;;;;6.90;44.20;;;;;;2350071;57;20098;-76
2022/03/14 07:18:42;;;;;;;;;;;6.90;44.50;;;;;;2349816;57;20078;-76
2022/03/14 07:21:08;;;;;;;;;;;6.90;44.30;;;;;;2349195;57;20338;-76
2022/03/14 07:23:35;;;;;;;;;;;6.90;43.90;;;;;;2597374;53;20086;-75
2022/03/14 07:26:01;;;;;;;;;;;6.90;44.60;;;;;;2349773;57;20070;-75
2022/03/14 07:28:28;;;;;;;;;;;6.90;43.80;;;;;;2349610;57;20130;-75
2022/03/14 07:30:54;;;;;;;;;;;6.90;43.90;;;;;;2349010;56;20186;-75
2022/03/14 07:33:21;;;;;;;;;;;6.90;43.50;;;;;;2349451;57;20074;-75
2022/03/14 07:35:48;;;;;;;;;;;7.00;44.00;;;;;;2349596;57;20066;-74
2022/03/14 07:38:14;;;;;;;;;;;7.00;43.30;;;;;;2348769;57;20082;-75
2022/03/14 07:40:42;;;;;;;;;;;7.10;44.90;;;;;;2349130;57;20133;-75
2022/03/14 07:43:08;;;;;;;;;;;7.10;43.60;;;;;;2596308;52;20237;-75
2022/03/14 07:45:35;;;;;;;;;;;7.10;44.10;;;;;;2347404;57;20078;-75
2022/03/14 07:48:02;;;;;;;;;;;7.20;43.50;;;;;;2595605;53;20098;-75
2022/03/14 07:50:28;;;;;;;;;;;7.20;43.20;;;;;;2348462;57;20142;-75
2022/03/14 07:52:56;;;;;;;;;;;7.20;43.90;;;;;;2349903;57;20311;-75
2022/03/14 07:55:23;;;;;;;;;;;7.20;44.10;;;;;;2349416;57;20122;-75
2022/03/14 07:57:49;;;;;;;;;;;7.30;43.10;;;;;;2349610;57;20086;-75
2022/03/14 08:00:19;;;;;;;;;;;7.40;43.50;;;;;;2596392;53;20409;-75
2022/03/14 08:02:47;;;;;;;;;;;7.50;44.00;;;;;;2349420;57;20090;-75
2022/03/14 08:05:15;;;;;;;;;;;7.50;44.10;;;;;;2349675;57;20141;-75
2022/03/14 08:07:45;;;;;;;;;;;7.50;43.60;;;;;;2347606;57;20199;-75
2022/03/14 08:10:12;;;;;;;;;;;7.60;43.90;;;;;;2348599;57;20318;-75
2022/03/14 08:12:43;;;;;;;;;;;7.70;43.80;;;;;;2349275;57;20071;-75
2022/03/14 08:15:10;;;;;;;;;;;7.70;42.40;;;;;;2349368;57;20074;-75
2022/03/14 08:17:37;;;;;;;;;;;7.70;42.90;;;;;;2349140;57;20082;-75
2022/03/14 08:20:04;;;;;;;;;;;7.80;43.30;;;;;;2349176;57;20082;-75
2022/03/14 08:22:31;;;;;;;;;;;7.80;43.10;;;;;;2332195;55;20261;-73
2022/03/14 08:24:57;;;;;;;;;;;7.90;42.80;;;;;;2295501;58;20068;-75
2022/03/14 08:27:24;;;;;;;;;;;8.00;42.80;;;;;;2302135;55;20080;-75
2022/03/14 08:29:50;;;;;;;;;;;8.00;43.40;;;;;;2295510;58;20360;-75
2022/03/14 08:32:17;;;;;;;;;;;8.10;42.90;;;;;;2314750;58;20095;-75
2022/03/14 08:34:44;;;;;;;;;;;8.10;43.40;;;;;;2322179;58;20163;-75
2022/03/14 08:37:11;;;;;;;;;;;8.20;43.40;;;;;;2322413;58;20099;-75
2022/03/14 08:39:37;;;;;;;;;;;8.30;43.20;;;;;;2320843;58;20163;-73
2022/03/14 08:42:05;;;;;;;;;;;8.30;42.90;;;;;;2321940;58;20115;-73
2022/03/14 08:44:31;;;;;;;;;;;8.40;43.00;;;;;;2322022;58;20119;-75
2022/03/14 08:46:58;;;;;;;;;;;8.40;43.50;;;;;;2322147;58;20108;-73
2022/03/14 08:49:24;;;;;;;;;;;8.40;41.80;;;;;;2322414;58;20183;-75
2022/03/14 08:51:51;;;;;;;;;;;8.40;42.60;;;;;;2322239;58;20131;-73
2022/03/14 08:54:17;;;;;;;;;;;8.50;43.30;;;;;;2321868;58;20074;-75
2022/03/14 08:56:43;;;;;;;;;;;8.50;42.20;;;;;;2322133;58;20123;-72
2022/03/14 08:59:12;;;;;;;;;;;8.60;42.20;;;;;;2321234;58;20322;-75
2022/03/14 09:01:39;;;;;;;;;;;8.60;42.80;;;;;;2321437;58;20244;-75
2022/03/14 09:04:05;;;;;;;;;;;8.70;43.20;;;;;;2321713;58;20184;-72
2022/03/14 09:06:33;;;;;;;;;;;8.80;42.00;;;;;;2321613;58;20143;-75
2022/03/14 09:08:59;;;;;;;;;;;8.80;41.80;;;;;;2321614;58;20150;-75
2022/03/14 09:11:26;;;;;;;;;;;8.80;43.30;;;;;;2322041;58;20394;-73
2022/03/14 09:13:52;;;;;;;;;;;8.90;43.10;;;;;;2322252;58;20124;-74
2022/03/14 09:16:19;;;;;;;;;;;9.00;43.40;;;;;;2322332;58;20118;-75
2022/03/14 09:18:46;;;;;;;;;;;9.00;43.70;;;;;;2332081;54;20087;-75
2022/03/14 09:21:14;;;;;;;;;;;9.10;43.60;;;;;;2513539;54;20083;-75
2022/03/14 09:23:42;;;;;;;;;;;9.10;43.40;;;;;;2320594;58;20166;-75
2022/03/14 09:26:08;;;;;;;;;;;9.20;43.50;;;;;;2321908;58;20146;-73
2022/03/14 09:28:36;;;;;;;;;;;9.20;43.20;;;;;;2321958;58;20230;-73
2022/03/14 09:31:03;;;;;;;;;;;9.30;43.40;;;;;;2321934;58;20336;-73
2022/03/14 09:33:29;;;;;;;;;;;9.40;43.30;;;;;;2321802;58;20135;-73
2022/03/14 09:35:56;;;;;;;;;;;9.40;44.10;;;;;;2321955;58;20080;-73
2022/03/14 09:38:24;;;;;;;;;;;9.40;45.10;;;;;;2345202;54;20072;-73
2022/03/14 09:40:50;;;;;;;;;;;9.40;44.70;;;;;;2332407;54;20119;-73
2022/03/14 09:43:18;;;;;;;;;;;9.50;44.30;;;;;;2321900;58;20127;-73
2022/03/14 09:45:45;;;;;;;;;;;9.60;43.40;;;;;;2322115;58;20151;-73
2022/03/14 09:48:14;;;;;;;;;;;9.60;43.20;;;;;;2467056;54;20083;-73
2022/03/14 09:50:41;;;;;;;;;;;9.60;44.10;;;;;;2321604;58;20147;-73
2022/03/14 09:53:09;;;;;;;;;;;9.70;44.60;;;;;;2321696;58;20323;-73
2022/03/14 09:55:43;;;;;;;;;;;9.60;44.20;;;;;;2322016;58;20124;-73
2022/03/14 09:58:10;;;;;;;;;;;9.70;44.40;;;;;;2321974;58;20060;-73
2022/03/14 10:00:37;;;;;;;;;;;9.70;43.50;;;;;;2321877;58;20119;-73
2022/03/14 10:03:04;;;;;;;;;;;9.70;43.20;;;;;;2322015;58;20079;-73
2022/03/14 10:05:31;;;;;;;;;;;9.80;44.40;;;;;;2322154;58;20095;-74
2022/03/14 10:07:57;;;;;;;;;;;9.80;43.90;;;;;;2376689;54;20075;-74
2022/03/14 10:10:24;;;;;;;;;;;9.90;43.70;;;;;;2323775;54;20132;-74
2022/03/14 10:12:53;;;;;;;;;;;10.00;42.90;;;;;;2322213;58;20067;-74
2022/03/14 10:15:21;;;;;;;;;;;10.00;43.00;;;;;;2408152;54;20131;-74
2022/03/14 10:17:47;;;;;;;;;;;10.00;43.20;;;;;;2322240;58;20115;-74
2022/03/14 10:20:16;;;;;;;;;;;10.00;42.80;;;;;;2322183;58;20452;-73
2022/03/14 10:22:42;;;;;;;;;;;10.10;43.80;;;;;;2321929;58;20063;-74
2022/03/14 10:25:10;;;;;;;;;;;10.10;44.20;;;;;;2322275;58;20071;-74
2022/03/14 10:27:38;;;;;;;;;;;10.20;44.20;;;;;;2421885;54;20083;-74
2022/03/14 10:30:06;;;;;;;;;;;10.20;44.70;;;;;;2321921;58;20201;-74
2022/03/14 10:32:33;;;;;;;;;;;10.30;44.90;;;;;;2322292;58;20088;-74
2022/03/14 10:35:01;;;;;;;;;;;10.30;44.60;;;;;;2406130;54;20079;-74
2022/03/14 10:37:29;;;;;;;;;;;10.40;44.20;;;;;;2321845;58;20091;-74
2022/03/14 10:40:03;;;;;;;;;;;10.40;43.50;;;;;;2322037;58;20076;-74
2022/03/14 10:42:36;;;;;;;;;;;10.50;43.60;;;;;;2322180;58;20127;-75
2022/03/14 10:45:06;;;;;;;;;;;10.60;44.20;;;;;;2321938;58;20075;-74
2022/03/14 10:47:33;;;;;;;;;;;10.70;44.80;;;;;;2322304;58;20083;-74
2022/03/14 10:49:59;;;;;;;;;;;10.80;45.10;;;;;;2321997;58;20194;-73
2022/03/14 10:52:26;;;;;;;;;;;10.90;45.40;;;;;;2322362;58;20079;-73
2022/03/14 10:54:52;;;;;;;;;;;11.00;45.60;;;;;;2322326;58;20067;-73
2022/03/14 10:57:20;;;;;;;;;;;11.10;46.00;;;;;;2563787;54;20078;-73
2022/03/14 10:59:47;;;;;;;;;;;11.20;45.90;;;;;;2319977;58;20067;-74
2022/03/14 11:02:17;;;;;;;;;;;11.20;46.30;;;;;;2340777;54;20059;-74
2022/03/14 11:04:44;;;;;;;;;;;11.30;46.40;;;;;;2321935;58;20079;-74
2022/03/14 11:07:11;;;;;;;;;;;11.40;46.90;;;;;;2322232;58;20083;-73
2022/03/14 11:09:39;;;;;;;;;;;11.40;47.50;;;;;;2321797;58;20131;-73
2022/03/14 11:12:07;;;;;;;;;;;11.40;47.90;;;;;;2321903;58;20079;-73
2022/03/14 11:14:33;;;;;;;;;;;11.50;47.90;;;;;;2322241;58;20159;-73
2022/03/14 11:17:10;;;;;;;;;;;11.50;48.40;;;;;;2321816;58;20079;-73
2022/03/14 11:19:36;;;;;;;;;;;11.60;47.60;;;;;;2321358;58;20079;-73
2022/03/14 11:22:03;;;;;;;;;;;11.80;47.40;;;;;;2322059;58;20099;-72
2022/03/14 11:24:30;;;;;;;;;;;11.80;47.40;;;;;;2322081;58;20076;-73
2022/03/14 11:26:57;;;;;;;;;;;11.90;48.20;;;;;;2321903;58;20067;-72
2022/03/14 11:29:25;;;;;;;;;;;12.00;47.30;;;;;;2321252;58;20087;-72
2022/03/14 11:31:52;;;;;;;;;;;12.10;47.20;;;;;;2322042;58;20079;-72
2022/03/14 11:34:19;;;;;;;;;;;12.20;47.00;;;;;;2322057;58;20084;-73
2022/03/14 11:36:46;;;;;;;;;;;12.20;46.90;;;;;;2322495;58;20068;-72
2022/03/14 11:39:12;;;;;;;;;;;12.30;47.20;;;;;;2321993;58;20218;-72
2022/03/14 11:41:39;;;;;;;;;;;12.30;47.30;;;;;;2322219;58;20068;-73
2022/03/14 11:44:06;;;;;;;;;;;12.40;47.50;;;;;;2322242;58;20072;-73
2022/03/14 11:46:34;;;;;;;;;;;12.30;47.30;;;;;;2321920;58;20121;-73
2022/03/14 11:49:13;;;;;;;;;;;12.40;47.20;;;;;;2322125;58;20499;-73
2022/03/14 11:51:41;;;;;;;;;;;12.40;47.90;;;;;;2322341;58;20335;-73
2022/03/14 11:54:11;;;;;;;;;;;12.40;47.80;;;;;;2322243;58;20631;-74
2022/03/14 11:56:38;;;;;;;;;;;12.40;47.60;;;;;;2331466;54;20155;-74
2022/03/14 11:59:08;;;;;;;;;;;12.50;47.90;;;;;;2321889;58;20087;-74
2022/03/14 12:01:46;;;;;;;;;;;12.50;48.40;;;;;;2322003;58;20103;-73
2022/03/14 12:04:26;;;;;;;;;;;12.50;48.00;;;;;;2322305;58;20135;-74
2022/03/14 12:07:17;;;;;;;;;;;12.50;48.30;;;;;;2322296;58;20191;-74
2022/03/14 12:09:49;;;;;;;;;;;12.50;49.50;;;;;;2317741;58;20116;-74
2022/03/14 12:12:43;;;;;;;;;;;12.50;48.80;;;;;;2322736;58;20334;-73
2022/03/14 12:15:11;;;;;;;;;;;12.50;48.70;;;;;;2342797;54;20304;-74
2022/03/14 12:17:43;;;;;;;;;;;12.50;48.80;;;;;;2322141;58;20091;-73
2022/03/14 12:20:14;;;;;;;;;;;12.50;48.70;;;;;;2322284;58;20087;-73
2022/03/14 12:22:43;;;;;;;;;;;12.50;48.50;;;;;;2322706;58;20084;-73
2022/03/14 12:25:10;;;;;;;;;;;12.50;48.40;;;;;;2322602;58;20145;-74
2022/03/14 12:27:37;;;;;;;;;;;12.50;48.30;;;;;;2322461;58;20067;-75
2022/03/14 12:32:55;;;;;;;;;;;12.60;48.40;;;;;;2608979;53;20348;-74
2022/03/14 12:35:26;;;;;;;;;;;12.60;48.60;;;;;;2471767;52;20090;-75
2022/03/14 12:37:54;;;;;;;;;;;12.70;49.20;;;;;;2452556;52;20328;-75
2022/03/14 12:40:40;;;;;;;;;;;12.70;49.20;;;;;;2378708;56;20081;-74
2022/03/14 12:43:11;;;;;;;;;;;12.80;49.40;;;;;;2379102;56;20204;-74
2022/03/14 12:45:38;;;;;;;;;;;12.90;49.30;;;;;;2574143;52;20128;-75
2022/03/14 12:48:13;;;;;;;;;;;12.90;49.40;;;;;;2525243;52;20122;-75
2022/03/14 12:50:46;;;;;;;;;;;13.10;49.70;;;;;;2394119;52;20772;-75
2022/03/14 12:53:14;;;;;;;;;;;13.10;50.40;;;;;;2384251;52;20074;-75
2022/03/14 12:55:44;;;;;;;;;;;13.20;50.90;;;;;;2379102;56;20364;-73
2022/03/14 12:58:13;;;;;;;;;;;13.20;51.30;;;;;;2379457;56;20126;-75
2022/03/14 13:00:39;;;;;;;;;;;13.30;51.50;;;;;;2391312;52;20097;-75
2022/03/14 13:03:07;;;;;;;;;;;13.30;51.30;;;;;;2379487;52;20145;-75
2022/03/14 13:05:33;;;;;;;;;;;13.30;51.50;;;;;;2379027;56;20065;-74
2022/03/14 13:08:01;;;;;;;;;;;13.30;51.50;;;;;;2378942;56;20081;-73
2022/03/14 13:10:37;;;;;;;;;;;13.30;51.90;;;;;;2378650;56;20062;-74
2022/03/14 13:13:04;;;;;;;;;;;13.30;52.10;;;;;;2381229;52;20081;-74
2022/03/14 13:15:30;;;;;;;;;;;13.30;52.40;;;;;;2378953;56;20077;-75
2022/03/14 13:17:57;;;;;;;;;;;13.40;52.20;;;;;;2633541;52;20074;-75
2022/03/14 13:20:26;;;;;;;;;;;13.30;52.10;;;;;;2378791;56;20078;-75
2022/03/14 13:22:53;;;;;;;;;;;13.30;52.10;;;;;;2375975;56;20078;-75
2022/03/14 13:25:29;;;;;;;;;;;13.30;52.50;;;;;;2376119;56;20117;-73
2022/03/14 13:27:56;;;;;;;;;;;13.30;52.20;;;;;;2377415;56;20074;-75
2022/03/14 13:30:22;;;;;;;;;;;13.30;52.10;;;;;;2377154;56;20352;-75
2022/03/14 13:32:49;;;;;;;;;;;13.30;51.80;;;;;;2377120;56;20092;-75
2022/03/14 13:35:16;;;;;;;;;;;13.30;51.90;;;;;;2377609;56;20069;-75
2022/03/14 13:37:43;;;;;;;;;;;13.30;51.80;;;;;;2377641;56;20065;-75
2022/03/14 13:40:20;;;;;;;;;;;13.30;51.70;;;;;;2377039;56;20069;-75
2022/03/14 13:42:46;;;;;;;;;;;13.30;51.60;;;;;;2377502;52;20085;-75
2022/03/14 13:47:53;;;;;;;;;;;13.30;52.10;;;;;;2329730;57;20130;-73
2022/03/14 13:50:19;;;;;;;;;;;13.30;51.90;;;;;;2348710;57;20310;-73
2022/03/14 13:52:50;;;;;;;;;;;13.30;52.30;;;;;;2370929;56;20126;-75
2022/03/14 13:55:17;;;;;;;;;;;13.30;52.20;;;;;;2372726;56;20069;-76
2022/03/14 13:57:45;;;;;;;;;;;13.40;52.90;;;;;;2373202;56;20540;-73
2022/03/14 14:00:13;;;;;;;;;;;13.40;53.10;;;;;;2372623;56;20121;-75
2022/03/14 14:02:39;;;;;;;;;;;13.40;53.00;;;;;;2372081;56;20130;-75
2022/03/14 14:05:07;;;;;;;;;;;13.40;52.90;;;;;;2407468;52;20136;-73
2022/03/14 14:07:34;;;;;;;;;;;13.40;53.00;;;;;;2372391;56;20121;-75
2022/03/14 14:10:08;;;;;;;;;;;13.40;52.80;;;;;;2371526;56;20065;-75
2022/03/14 14:12:35;;;;;;;;;;;13.40;52.80;;;;;;2372063;56;20069;-75
2022/03/14 14:15:03;;;;;;;;;;;13.40;52.40;;;;;;2373218;56;20065;-75
2022/03/14 14:17:35;;;;;;;;;;;13.40;52.60;;;;;;2373077;56;20077;-75
2022/03/14 14:20:09;;;;;;;;;;;13.40;52.40;;;;;;2373051;56;20157;-75
2022/03/14 14:22:37;;;;;;;;;;;13.40;52.30;;;;;;2460721;52;20113;-74
2022/03/14 14:25:05;;;;;;;;;;;13.40;52.30;;;;;;2272131;59;20109;-77
2022/03/14 14:27:32;;;;;;;;;;;13.40;52.20;;;;;;2274409;59;20080;-74
2022/03/14 14:29:59;;;;;;;;;;;13.40;52.50;;;;;;2273560;59;20065;-74
2022/03/14 14:32:26;;;;;;;;;;;13.40;53.20;;;;;;2503918;54;20077;-74
2022/03/14 14:34:54;;;;;;;;;;;13.40;53.10;;;;;;2502823;55;20069;-74